createdAt,value
2022-07-29T00:00:00.921Z,101605.84
2022-07-29T00:02:28.096Z,101603.81
2022-07-29T00:04:54.847Z,101597.41
2022-07-29T00:07:21.578Z,101596.19
2022-07-29T00:09:51.753Z,101594.69
2022-07-29T00:12:26.355Z,101605.44
2022-07-29T00:14:57.254Z,101595.66
2022-07-29T00:17:24.580Z,101592.56
2022-07-29T00:19:51.344Z,101590.66
2022-07-29T00:22:18.126Z,101599.38
2022-07-29T00:24:44.765Z,101603.06
2022-07-29T00:27:11.439Z,101596.00
2022-07-29T00:29:38.052Z,101589.25
2022-07-29T00:32:04.875Z,101585.91
2022-07-29T00:34:50.705Z,101586.75
2022-07-29T00:37:17.387Z,101584.47
2022-07-29T00:39:44.160Z,101583.03
2022-07-29T00:42:11.027Z,101585.31
2022-07-29T00:44:41.469Z,101577.72
2022-07-29T00:47:09.035Z,101574.66
2022-07-29T00:49:36.223Z,101562.72
2022-07-29T00:52:03.960Z,101566.22
2022-07-29T00:54:31.347Z,101571.06
2022-07-29T00:57:01.189Z,101567.09
2022-07-29T00:59:34.681Z,101567.75
2022-07-29T01:02:02.201Z,101569.91
2022-07-29T01:04:30.886Z,101567.69
2022-07-29T01:06:57.748Z,101565.19
2022-07-29T01:09:42.742Z,101567.16
2022-07-29T01:12:11.667Z,101564.94
2022-07-29T01:14:38.705Z,101555.97
2022-07-29T01:17:13.038Z,101555.16
2022-07-29T01:19:42.450Z,101562.06
2022-07-29T01:22:22.906Z,101566.63
2022-07-29T01:25:06.664Z,101562.75
2022-07-29T01:27:33.382Z,101565.56
2022-07-29T01:30:00.809Z,101574.28
2022-07-29T01:32:29.583Z,101563.13
2022-07-29T01:34:59.275Z,101569.28
2022-07-29T01:37:41.339Z,101581.66
2022-07-29T01:40:12.639Z,101575.19
2022-07-29T01:42:51.386Z,101572.94
2022-07-29T01:45:17.976Z,101567.59
2022-07-29T01:48:03.300Z,101564.50
2022-07-29T01:50:36.820Z,101561.69
2022-07-29T01:53:05.438Z,101565.03
2022-07-29T01:55:41.505Z,101561.97
2022-07-29T01:58:08.557Z,101561.44
2022-07-29T02:00:35.900Z,101560.59
2022-07-29T02:03:05.051Z,101568.50
2022-07-29T02:05:32.709Z,101566.00
2022-07-29T02:08:00.154Z,101558.94
2022-07-29T02:10:28.873Z,101555.88
2022-07-29T02:12:57.071Z,101560.59
2022-07-29T02:15:25.394Z,101558.03
2022-07-29T02:17:55.271Z,101553.38
2022-07-29T02:20:23.382Z,101556.72
2022-07-29T02:22:51.526Z,101562.94
2022-07-29T02:25:19.005Z,101558.03
2022-07-29T02:27:46.022Z,101560.13
2022-07-29T02:30:13.587Z,101562.94
2022-07-29T02:32:41.125Z,101563.94
2022-07-29T02:35:09.177Z,101564.94
2022-07-29T02:37:37.565Z,101561.56
2022-07-29T02:40:05.009Z,101565.50
2022-07-29T02:42:32.414Z,101568.88
2022-07-29T02:44:59.261Z,101563.31
2022-07-29T02:47:31.823Z,101564.94
2022-07-29T02:50:20.952Z,101566.97
2022-07-29T02:52:50.325Z,101567.88
2022-07-29T02:55:27.379Z,101561.94
2022-07-29T02:58:12.944Z,101570.91
2022-07-29T03:00:41.583Z,101566.41
2022-07-29T03:03:10.253Z,101565.06
2022-07-29T03:05:36.895Z,101565.34
2022-07-29T03:08:06.669Z,101566.97
2022-07-29T03:10:34.277Z,101564.38
2022-07-29T03:13:01.405Z,101562.75
2022-07-29T03:15:28.542Z,101568.72
2022-07-29T03:17:56.788Z,101563.66
2022-07-29T03:20:23.967Z,101571.25
2022-07-29T03:22:51.305Z,101566.81
2022-07-29T03:25:19.125Z,101578.63
2022-07-29T03:27:46.734Z,101581.44
2022-07-29T03:30:18.364Z,101584.78
2022-07-29T03:32:48.695Z,101582.88
2022-07-29T03:35:17.682Z,101576.72
2022-07-29T03:37:45.253Z,101585.16
2022-07-29T03:40:14.951Z,101574.50
2022-07-29T03:42:43.550Z,101571.13
2022-07-29T03:45:12.272Z,101576.47
2022-07-29T03:47:50.134Z,101565.53
2022-07-29T03:50:20.554Z,101573.44
2022-07-29T03:52:48.086Z,101571.13
2022-07-29T03:55:15.346Z,101571.75
2022-07-29T03:57:42.855Z,101573.72
2022-07-29T04:00:10.073Z,101567.25
2022-07-29T04:02:37.158Z,101571.75
2022-07-29T04:05:03.966Z,101567.56
2022-07-29T04:07:31.111Z,101583.00
2022-07-29T04:09:58.072Z,101575.69
2022-07-29T04:12:26.013Z,101577.97
2022-07-29T04:14:52.887Z,101576.84
2022-07-29T04:17:19.855Z,101574.63
2022-07-29T04:19:46.658Z,101581.44
2022-07-29T04:22:13.448Z,101574.63
2022-07-29T04:24:43.978Z,101578.88
2022-07-29T04:27:11.277Z,101581.69
2022-07-29T04:29:38.115Z,101585.00
2022-07-29T04:32:24.043Z,101579.16
2022-07-29T04:34:50.893Z,101585.63
2022-07-29T04:37:17.763Z,101584.25
2022-07-29T04:39:44.772Z,101583.09
2022-07-29T04:42:11.584Z,101583.41
2022-07-29T04:44:39.628Z,101576.13
2022-07-29T04:47:10.114Z,101587.66
2022-07-29T04:49:39.149Z,101580.34
2022-07-29T04:52:06.310Z,101583.69
2022-07-29T04:54:33.027Z,101585.38
2022-07-29T04:56:59.902Z,101591.84
2022-07-29T04:59:27.966Z,101582.63
2022-07-29T05:01:54.909Z,101585.69
2022-07-29T05:04:21.734Z,101584.31
2022-07-29T05:06:48.977Z,101579.25
2022-07-29T05:09:15.715Z,101587.97
2022-07-29T05:11:42.420Z,101579.25
2022-07-29T05:14:09.187Z,101573.94
2022-07-29T05:16:36.405Z,101576.75
2022-07-29T05:19:04.305Z,101568.88
2022-07-29T05:21:31.016Z,101573.63
2022-07-29T05:23:57.695Z,101575.59
2022-07-29T05:26:24.409Z,101575.06
2022-07-29T05:28:51.126Z,101588.53
2022-07-29T05:31:18.107Z,101593.59
2022-07-29T05:33:47.391Z,101590.22
2022-07-29T05:36:14.154Z,101586.59
2022-07-29T05:38:40.789Z,101595.25
2022-07-29T05:41:07.923Z,101588.25
2022-07-29T05:43:35.023Z,101587.97
2022-07-29T05:46:02.054Z,101588.53
2022-07-29T05:48:29.132Z,101591.06
2022-07-29T05:50:56.043Z,101597.25
2022-07-29T05:53:22.754Z,101592.19
2022-07-29T05:55:50.096Z,101591.34
2022-07-29T05:58:17.161Z,101598.06
2022-07-29T06:00:44.013Z,101592.44
2022-07-29T06:03:10.779Z,101597.81
2022-07-29T06:05:37.485Z,101602.59
2022-07-29T06:08:06.879Z,101602.00
2022-07-29T06:10:34.030Z,101605.09
2022-07-29T06:13:00.703Z,101607.91
2022-07-29T06:15:27.684Z,101610.19
2022-07-29T06:17:59.030Z,101613.81
2022-07-29T06:20:30.906Z,101616.34
2022-07-29T06:22:58.494Z,101627.81
2022-07-29T06:25:25.191Z,101627.59
2022-07-29T06:27:52.227Z,101626.84
2022-07-29T06:30:19.236Z,101623.59
2022-07-29T06:32:45.971Z,101627.22
2022-07-29T06:35:37.638Z,101625.25
2022-07-29T06:38:00.057Z,101626.41
2022-07-29T06:40:45.713Z,101624.13
2022-07-29T06:43:12.637Z,101629.16
2022-07-29T06:45:42.692Z,101628.38
2022-07-29T06:48:10.319Z,101620.19
2022-07-29T06:50:37.234Z,101617.13
2022-07-29T06:53:04.217Z,101620.72
2022-07-29T06:55:31.171Z,101620.19
2022-07-29T06:57:57.976Z,101625.88
2022-07-29T07:00:25.288Z,101621.59
2022-07-29T07:02:52.564Z,101626.66
2022-07-29T07:05:19.456Z,101623.84
2022-07-29T07:07:46.094Z,101624.38
2022-07-29T07:10:12.810Z,101619.59
2022-07-29T07:12:39.486Z,101624.38
2022-07-29T07:15:06.964Z,101619.28
2022-07-29T07:17:33.695Z,101622.13
2022-07-29T07:20:00.770Z,101628.03
2022-07-29T07:22:27.936Z,101628.53
2022-07-29T07:24:54.722Z,101638.38
2022-07-29T07:27:21.384Z,101643.28
2022-07-29T07:29:48.131Z,101636.81
2022-07-29T07:32:17.581Z,101644.19
2022-07-29T07:34:45.006Z,101647.97
2022-07-29T07:37:11.744Z,101644.97
2022-07-29T07:39:38.465Z,101647.53
2022-07-29T07:42:05.252Z,101648.44
2022-07-29T07:44:32.150Z,101649.41
2022-07-29T07:47:03.937Z,101647.59
2022-07-29T07:49:35.596Z,101650.31
2022-07-29T07:52:02.375Z,101648.97
2022-07-29T07:54:29.131Z,101647.53
2022-07-29T07:56:56.096Z,101651.19
2022-07-29T07:59:22.898Z,101652.31
2022-07-29T08:01:55.647Z,101643.91
2022-07-29T08:04:28.156Z,101647.00
2022-07-29T08:06:56.348Z,101641.38
2022-07-29T08:09:31.048Z,101646.75
2022-07-29T08:11:59.136Z,101643.06
2022-07-29T08:14:25.869Z,101643.91
2022-07-29T08:16:52.654Z,101648.06
2022-07-29T08:19:19.550Z,101652.88
2022-07-29T08:21:46.442Z,101646.69
2022-07-29T08:24:31.509Z,101655.09
2022-07-29T08:26:58.759Z,101656.22
2022-07-29T08:29:25.806Z,101653.13
2022-07-29T08:31:52.897Z,101653.63
2022-07-29T08:34:26.909Z,101646.28
2022-07-29T08:36:54.912Z,101657.28
2022-07-29T08:39:21.738Z,101648.63
2022-07-29T08:41:57.467Z,101653.63
2022-07-29T08:44:31.055Z,101648.00
2022-07-29T08:46:58.436Z,101655.88
2022-07-29T08:49:25.379Z,101647.44
2022-07-29T08:51:53.146Z,101649.59
2022-07-29T08:54:20.330Z,101651.31
2022-07-29T08:56:50.444Z,101646.28
2022-07-29T08:59:18.720Z,101645.47
2022-07-29T09:01:48.280Z,101642.66
2022-07-29T09:04:16.349Z,101638.44
2022-07-29T09:06:48.746Z,101639.84
2022-07-29T09:09:15.864Z,101648.19
2022-07-29T09:11:43.634Z,101635.59
2022-07-29T09:14:12.655Z,101645.09
2022-07-29T09:17:05.895Z,101640.31
2022-07-29T09:19:38.142Z,101645.03
2022-07-29T09:22:06.601Z,101643.91
2022-07-29T09:24:36.414Z,101640.25
2022-07-29T09:27:03.602Z,101647.25
2022-07-29T09:29:34.447Z,101632.91
2022-07-29T09:32:07.098Z,101630.88
2022-07-29T09:34:33.917Z,101634.25
2022-07-29T09:37:00.828Z,101635.88
2022-07-29T09:39:32.098Z,101638.97
2022-07-29T09:42:00.778Z,101637.34
2022-07-29T09:44:27.519Z,101636.72
2022-07-29T09:46:59.363Z,101636.44
2022-07-29T09:49:26.580Z,101629.66
2022-07-29T09:52:05.328Z,101637.78
2022-07-29T09:54:38.119Z,101639.69
2022-07-29T09:57:06.031Z,101640.25
2022-07-29T09:59:32.892Z,101630.94
2022-07-29T10:01:59.919Z,101627.50
2022-07-29T10:04:40.688Z,101641.53
2022-07-29T10:07:07.920Z,101632.47
2022-07-29T10:09:35.250Z,101633.84
2022-07-29T10:12:12.315Z,101627.31
2022-07-29T10:14:39.736Z,101629.50
2022-07-29T10:17:07.456Z,101624.44
2022-07-29T10:19:34.913Z,101624.34
2022-07-29T10:22:03.296Z,101628.25
2022-07-29T10:24:30.869Z,101630.72
2022-07-29T10:26:58.710Z,101623.69
2022-07-29T10:29:26.301Z,101628.69
2022-07-29T10:31:59.225Z,101626.09
2022-07-29T10:34:32.611Z,101619.03
2022-07-29T10:37:13.731Z,101621.53
2022-07-29T10:40:02.115Z,101624.88
2022-07-29T10:42:34.579Z,101638.91
2022-07-29T10:45:04.320Z,101627.22
2022-07-29T10:47:31.582Z,101627.78
2022-07-29T10:50:03.987Z,101630.03
2022-07-29T10:52:49.169Z,101628.28
2022-07-29T10:55:35.785Z,101626.22
2022-07-29T10:58:13.534Z,101627.91
2022-07-29T11:00:40.385Z,101621.16
2022-07-29T11:03:10.530Z,101619.94
2022-07-29T11:05:54.707Z,101626.94
2022-07-29T11:08:25.991Z,101617.94
2022-07-29T11:10:54.800Z,101622.16
2022-07-29T11:13:41.459Z,101624.97
2022-07-29T11:16:09.430Z,101627.16
2022-07-29T11:18:37.946Z,101623.84
2022-07-29T11:21:26.703Z,101627.69
2022-07-29T11:24:14.893Z,101628.22
2022-07-29T11:27:13.369Z,101625.09
2022-07-29T11:29:51.016Z,101634.91
2022-07-29T11:35:37.315Z,101626.59
2022-07-29T11:38:27.906Z,101624.69
2022-07-29T11:41:13.460Z,101627.63
2022-07-29T11:44:03.056Z,101623.63
2022-07-29T11:46:50.174Z,101615.19
2022-07-29T11:52:08.378Z,101619.28
2022-07-29T11:54:58.211Z,101614.72
2022-07-29T11:57:36.113Z,101615.75
2022-07-29T12:00:09.942Z,101618.78
2022-07-29T12:02:40.889Z,101612.66
2022-07-29T12:05:10.833Z,101617.19
2022-07-29T12:07:38.815Z,101619.22
2022-07-29T12:10:06.430Z,101618.88
2022-07-29T12:12:33.694Z,101616.28
2022-07-29T12:15:15.131Z,101612.66
2022-07-29T12:17:42.240Z,101621.09
2022-07-29T12:20:10.102Z,101614.94
2022-07-29T12:22:42.087Z,101614.84
2022-07-29T12:25:32.619Z,101616.19
2022-07-29T12:28:02.583Z,101608.34
2022-07-29T12:30:36.812Z,101604.91
2022-07-29T12:33:11.228Z,101604.06
2022-07-29T12:35:38.090Z,101598.44
2022-07-29T12:38:05.195Z,101600.94
2022-07-29T12:40:32.320Z,101597.00
2022-07-29T12:43:12.549Z,101597.19
2022-07-29T12:45:40.425Z,101591.47
2022-07-29T12:48:09.997Z,101586.38
2022-07-29T12:50:38.148Z,101597.84
2022-07-29T12:53:12.398Z,101584.16
2022-07-29T12:55:40.166Z,101580.19
2022-07-29T12:58:06.812Z,101595.75
2022-07-29T13:00:33.586Z,101585.09
2022-07-29T13:03:02.090Z,101589.59
2022-07-29T13:05:49.126Z,101585.72
2022-07-29T13:08:20.371Z,101586.66
2022-07-29T13:10:49.959Z,101585.19
2022-07-29T13:13:17.007Z,101593.97
2022-07-29T13:15:45.366Z,101588.53
2022-07-29T13:18:31.362Z,101579.25
2022-07-29T13:20:58.741Z,101578.59
2022-07-29T13:23:25.531Z,101578.59
2022-07-29T13:25:52.399Z,101583.94
2022-07-29T13:28:22.655Z,101582.47
2022-07-29T13:30:49.390Z,101578.00
2022-07-29T13:33:16.406Z,101571.19
2022-07-29T13:35:43.107Z,101572.88
2022-07-29T13:38:09.832Z,101568.38
2022-07-29T13:40:36.681Z,101576.75
2022-07-29T13:43:03.472Z,101574.47
2022-07-29T13:45:31.299Z,101580.59
2022-07-29T13:47:58.485Z,101576.44
2022-07-29T13:50:25.166Z,101578.72
2022-07-29T13:52:52.409Z,101578.50
2022-07-29T13:55:19.163Z,101579.06
2022-07-29T13:57:45.828Z,101573.50
2022-07-29T14:00:13.481Z,101580.00
2022-07-29T14:02:40.174Z,101580.28
2022-07-29T14:05:08.653Z,101583.09
2022-07-29T14:07:35.747Z,101585.41
2022-07-29T14:10:02.475Z,101566.72
2022-07-29T14:12:29.173Z,101578.50
2022-07-29T14:14:55.857Z,101567.16
2022-07-29T14:17:23.007Z,101575.91
2022-07-29T14:19:50.005Z,101575.59
2022-07-29T14:22:16.701Z,101569.66
2022-07-29T14:24:43.356Z,101578.88
2022-07-29T14:27:10.206Z,101565.56
2022-07-29T14:29:38.786Z,101559.63
2022-07-29T14:32:09.369Z,101568.63
2022-07-29T14:34:36.510Z,101565.56
2022-07-29T14:37:04.050Z,101573.44
2022-07-29T14:39:31.714Z,101570.91
2022-07-29T14:41:59.405Z,101565.91
2022-07-29T14:44:32.469Z,101572.38
2022-07-29T14:47:07.815Z,101563.09
2022-07-29T14:49:34.832Z,101564.84
2022-07-29T14:52:01.918Z,101564.31
2022-07-29T14:54:28.610Z,101560.38
2022-07-29T14:56:58.774Z,101566.84
2022-07-29T14:59:26.134Z,101554.72
2022-07-29T15:01:52.961Z,101552.09
2022-07-29T15:04:19.662Z,101555.66
2022-07-29T15:06:46.761Z,101550.53
2022-07-29T15:09:13.463Z,101544.91
2022-07-29T15:11:40.163Z,101546.56
2022-07-29T15:14:07.166Z,101550.53
2022-07-29T15:16:34.379Z,101540.09
2022-07-29T15:19:02.115Z,101548.34
2022-07-29T15:21:28.911Z,101535.94
2022-07-29T15:24:02.517Z,101524.31
2022-07-29T15:26:29.557Z,101530.69
2022-07-29T15:28:59.118Z,101536.66
2022-07-29T15:31:30.652Z,101526.19
2022-07-29T15:34:05.037Z,101522.97
2022-07-29T15:36:51.467Z,101527.97
2022-07-29T15:39:19.501Z,101539.06
2022-07-29T15:41:47.900Z,101549.19
2022-07-29T15:44:14.763Z,101550.34
2022-07-29T15:47:01.442Z,101555.47
2022-07-29T15:49:47.583Z,101558.28
2022-07-29T15:52:24.783Z,101550.44
2022-07-29T15:54:52.413Z,101556.31
2022-07-29T15:57:19.691Z,101555.75
2022-07-29T15:59:46.530Z,101564.53
2022-07-29T16:02:13.386Z,101557.25
2022-07-29T16:04:40.106Z,101557.53
2022-07-29T16:07:07.795Z,101556.72
2022-07-29T16:09:34.673Z,101562.66
2022-07-29T16:12:01.433Z,101552.53
2022-07-29T16:14:28.885Z,101558.97
2022-07-29T16:16:56.443Z,101553.97
2022-07-29T16:19:23.789Z,101547.50
2022-07-29T16:21:50.614Z,101539.03
2022-07-29T16:24:17.378Z,101540.19
2022-07-29T16:26:44.054Z,101534.25
2022-07-29T16:29:10.997Z,101530.59
2022-07-29T16:31:38.390Z,101531.31
2022-07-29T16:34:08.160Z,101542.06
2022-07-29T16:36:35.049Z,101534.44
2022-07-29T16:39:01.842Z,101547.72
2022-07-29T16:41:30.245Z,101542.91
2022-07-29T16:44:04.005Z,101546.56
2022-07-29T16:46:30.763Z,101545.22
2022-07-29T16:48:58.118Z,101548.03
2022-07-29T16:51:26.248Z,101545.22
2022-07-29T16:53:57.145Z,101538.09
2022-07-29T16:56:26.231Z,101547.31
2022-07-29T16:58:58.897Z,101545.84
2022-07-29T17:01:29.640Z,101546.06
2022-07-29T17:04:13.122Z,101550.88
2022-07-29T17:06:41.168Z,101546.06
2022-07-29T17:09:09.504Z,101543.75
2022-07-29T17:11:56.123Z,101547.94
2022-07-29T17:14:27.396Z,101546.28
2022-07-29T17:17:00.170Z,101552.75
2022-07-29T17:19:28.812Z,101549.59
2022-07-29T17:22:03.255Z,101553.59
2022-07-29T17:24:34.077Z,101540.63
2022-07-29T17:27:01.199Z,101547.72
2022-07-29T17:29:27.993Z,101549.69
2022-07-29T17:31:54.913Z,101543.75
2022-07-29T17:34:21.856Z,101547.22
2022-07-29T17:36:49.202Z,101545.53
2022-07-29T17:39:15.968Z,101554.53
2022-07-29T17:41:44.033Z,101550.03
2022-07-29T17:44:14.786Z,101547.50
2022-07-29T17:46:41.633Z,101549.50
2022-07-29T17:49:08.565Z,101547.00
2022-07-29T17:51:35.269Z,101546.16
2022-07-29T17:54:01.970Z,101534.88
2022-07-29T17:56:28.948Z,101536.88
2022-07-29T17:58:56.530Z,101530.94
2022-07-29T18:01:23.861Z,101528.09
2022-07-29T18:04:00.212Z,101534.56
2022-07-29T18:06:27.152Z,101541.03
2022-07-29T18:08:53.941Z,101545.84
2022-07-29T18:11:20.934Z,101547.50
2022-07-29T18:13:56.607Z,101551.47
2022-07-29T18:16:23.388Z,101547.50
2022-07-29T18:18:50.190Z,101542.72
2022-07-29T18:21:17.004Z,101546.66
2022-07-29T18:24:04.050Z,101546.66
2022-07-29T18:26:30.992Z,101541.88
2022-07-29T18:28:57.638Z,101545.53
2022-07-29T18:31:24.483Z,101533.09
2022-07-29T18:33:59.955Z,101548.06
2022-07-29T18:36:26.929Z,101539.59
2022-07-29T18:38:53.614Z,101543.25
2022-07-29T18:41:23.529Z,101554.53
2022-07-29T18:43:57.495Z,101559.84
2022-07-29T18:46:30.304Z,101558.06
2022-07-29T18:48:58.057Z,101565.38
2022-07-29T18:51:24.747Z,101556.91
2022-07-29T18:53:55.771Z,101560.88
2022-07-29T18:56:22.509Z,101562.56
2022-07-29T18:58:49.155Z,101559.72
2022-07-29T19:01:21.386Z,101559.44
2022-07-29T19:03:56.540Z,101561.41
2022-07-29T19:06:25.774Z,101560.56
2022-07-29T19:08:58.880Z,101564.22
2022-07-29T19:11:25.588Z,101562.84
2022-07-29T19:13:53.695Z,101567.69
2022-07-29T19:16:20.403Z,101574.47
2022-07-29T19:18:47.653Z,101591.69
2022-07-29T19:21:14.362Z,101593.69
2022-07-29T19:24:00.721Z,101590.00
2022-07-29T19:26:29.439Z,101588.38
2022-07-29T19:28:56.773Z,101595.16
2022-07-29T19:31:25.796Z,101600.78
2022-07-29T19:34:02.570Z,101612.06
2022-07-29T19:36:31.200Z,101616.03
2022-07-29T19:38:59.537Z,101610.38
2022-07-29T19:41:27.774Z,101614.34
2022-07-29T19:44:00.062Z,101616.34
2022-07-29T19:46:29.707Z,101619.16
2022-07-29T19:48:57.391Z,101622.81
2022-07-29T19:51:24.825Z,101621.16
2022-07-29T19:54:00.948Z,101624.28
2022-07-29T19:56:30.161Z,101634.41
2022-07-29T19:58:57.429Z,101631.59
2022-07-29T20:01:25.032Z,101636.81
2022-07-29T20:03:55.999Z,101641.00
2022-07-29T20:06:23.392Z,101640.78
2022-07-29T20:08:50.165Z,101636.31
2022-07-29T20:11:17.383Z,101644.22
2022-07-29T20:13:44.183Z,101646.53
2022-07-29T20:16:11.026Z,101647.34
2022-07-29T20:18:37.718Z,101653.00
2022-07-29T20:21:04.895Z,101652.47
2022-07-29T20:23:33.443Z,101656.13
2022-07-29T20:26:00.436Z,101652.47
2022-07-29T20:28:27.232Z,101657.28
2022-07-29T20:30:53.978Z,101661.25
2022-07-29T20:33:20.716Z,101651.94
2022-07-29T20:35:47.577Z,101658.41
2022-07-29T20:38:18.171Z,101666.03
2022-07-29T20:40:45.548Z,101663.75
2022-07-29T20:43:12.230Z,101665.75
2022-07-29T20:45:39.744Z,101669.19
2022-07-29T20:48:07.085Z,101672.00
2022-07-29T20:50:35.157Z,101673.66
2022-07-29T20:53:01.781Z,101673.28
2022-07-29T20:55:28.561Z,101675.88
2022-07-29T20:57:55.374Z,101677.84
2022-07-29T21:00:22.149Z,101679.28
2022-07-29T21:02:48.968Z,101677.66
2022-07-29T21:05:16.087Z,101669.91
2022-07-29T21:07:42.921Z,101673.34
2022-07-29T21:10:09.810Z,101677.84
2022-07-29T21:12:36.596Z,101675.88
2022-07-29T21:15:06.797Z,101685.69
2022-07-29T21:17:39.139Z,101676.09
2022-07-29T21:20:08.887Z,101674.19
2022-07-29T21:22:43.086Z,101676.47
2022-07-29T21:25:10.965Z,101688.22
2022-07-29T21:27:56.302Z,101692.25
2022-07-29T21:30:23.279Z,101692.25
2022-07-29T21:32:50.087Z,101694.47
2022-07-29T21:35:31.380Z,101691.75
2022-07-29T21:38:03.787Z,101691.66
2022-07-29T21:40:30.670Z,101690.50
2022-07-29T21:42:57.419Z,101689.06
2022-07-29T21:45:24.115Z,101698.09
2022-07-29T21:47:50.849Z,101699.56
2022-07-29T21:50:19.158Z,101709.72
2022-07-29T21:52:45.861Z,101703.53
2022-07-29T21:55:12.609Z,101695.16
2022-07-29T21:57:39.412Z,101702.47
2022-07-29T22:00:06.638Z,101703.53
2022-07-29T22:02:33.534Z,101694.56
2022-07-29T22:05:00.291Z,101691.50
2022-07-29T22:07:55.420Z,101692.03
2022-07-29T22:10:13.715Z,101695.16
2022-07-29T22:12:40.445Z,101700.50
2022-07-29T22:15:07.788Z,101700.50
2022-07-29T22:17:34.687Z,101694.31
2022-07-29T22:20:01.389Z,101698.53
2022-07-29T22:22:28.077Z,101701.56
2022-07-29T22:24:55.989Z,101697.59
2022-07-29T22:27:22.995Z,101701.03
2022-07-29T22:29:49.712Z,101694.56
2022-07-29T22:32:16.393Z,101683.47
2022-07-29T22:34:43.045Z,101691.63
2022-07-29T22:37:09.737Z,101693.69
2022-07-29T22:39:36.524Z,101703.50
2022-07-29T22:42:03.210Z,101700.47
2022-07-29T22:44:29.927Z,101702.91
2022-07-29T22:46:56.888Z,101700.38
2022-07-29T22:49:24.070Z,101706.00
2022-07-29T22:51:50.925Z,101712.28
2022-07-29T22:54:17.787Z,101704.03
2022-07-29T22:56:44.504Z,101705.38
2022-07-29T22:59:11.223Z,101699.53
2022-07-29T23:01:38.353Z,101704.97
2022-07-29T23:04:05.695Z,101698.03
2022-07-29T23:06:32.566Z,101714.94
2022-07-29T23:08:59.279Z,101702.97
2022-07-29T23:11:25.977Z,101713.19
2022-07-29T23:13:54.315Z,101710.38
2022-07-29T23:16:26.507Z,101707.84
2022-07-29T23:18:54.080Z,101711.72
2022-07-29T23:21:21.130Z,101711.19
2022-07-29T23:23:53.701Z,101705.25
2022-07-29T23:26:20.438Z,101703.34
2022-07-29T23:28:47.173Z,101704.97
2022-07-29T23:31:13.895Z,101710.97
2022-07-29T23:33:41.104Z,101718.50
2022-07-29T23:36:07.884Z,101702.22
2022-07-29T23:38:34.666Z,101699.91
2022-07-29T23:41:02.476Z,101705.97
2022-07-29T23:43:29.153Z,101708.16
2022-07-29T23:45:56.161Z,101705.56
2022-07-29T23:48:24.962Z,101698.34
2022-07-29T23:50:51.891Z,101710.13
2022-07-29T23:53:18.679Z,101700.31
2022-07-29T23:55:45.344Z,101695.53
2022-07-29T23:58:12.050Z,101695.53
